Tropical Cyclones
[Index]
Main Index Home Page Stock Weather Photos Extreme Storms Discussion Storm News and Storm Chasing Reports Tropical Cyclones / Hurricanes / Typhoons Weather Data and Links Wild Fires / Bushfires Weather Observation Techniques Weather Picture Catalogue Tornado Pictures and Reports Stock Video Footage and DVDs for sale
Season 1984-1985 Tropical Cyclone JACOB Track Map
Season 1984-1985 Summaries: [BoM-AU] [JTWC-AU] [JTWC-SIO] [JTWC-SPAC] [JTWC-SH]
<<- Previous TC | BoM 1984-1985 Season | Next TC ->>

click for intensity scale information  Lat/long Grid: Show Hide

 Date Labels: Show Hide

Bureau of Meteorology Tropical Cyclone Data

Name: JACOB
Number: 671 / 198485_09

15 Feb 1985 00:00 UTC to 28 Feb 1985 00:00 UTC

    date/time    lat    long    hPa   cat  kts
1985-02-15 00    9.0   127.6   1003         23          
1985-02-15 06   10.1   127.3   1001         27          
1985-02-15 12   11.0   127.1   1000         31          
1985-02-15 18   11.7   126.7   1000         31          
1985-02-16 00   12.1   126.1    999         31          
1985-02-16 06   12.3   125.3    998         33          
1985-02-16 12   12.5   124.4    997         35          
1985-02-16 18   12.6   123.3    995    1    37          
1985-02-17 00   12.7   122.1    994    1    41          
1985-02-17 06   13.1   121.2    992    1    43          
1985-02-17 12   13.4   120.4    990    1    47          
1985-02-17 18   13.8   119.7    988    1    51          
1985-02-18 00   14.1   118.9    984    2    54          
1985-02-18 06   14.4   118.1    980    2    60          
1985-02-18 12   14.7   117.4    976    2    66          
1985-02-18 18   14.8   116.7    966    3    78          
1985-02-19 00   15.0   116.1    963    3    82          
1985-02-19 06   15.1   115.1    957    3    87          
1985-02-19 12   15.2   114.7    953    4    91          
1985-02-19 18   15.4   113.9    952    4    93          
1985-02-20 00   15.5   113.0    952    4    93          
1985-02-20 06   15.7   112.2    950    4    95          
1985-02-20 12   15.7   111.5    951    4    93          
1985-02-20 18   15.8   110.9    952    4    93          
1985-02-21 00   15.9   110.1    952    4    93          
1985-02-21 06   15.9   109.1    952    4    93          
1985-02-21 12   16.1   107.9    953    4    93          
1985-02-21 18   16.3   106.5    953    4    93          
1985-02-22 00   16.9   105.3    954    4    91          
1985-02-22 06   17.5   104.3    954    4    91          
1985-02-22 12   18.0   103.4    955    4    89          
1985-02-22 18   18.3   102.8    955    4    89          
1985-02-23 00   18.7   102.2    956    3    89          
1985-02-23 06   19.3   101.5    957    3    87          
1985-02-23 12   20.1   100.4    958    3    86          
1985-02-23 18   20.8    99.4    959    3    68          
1985-02-24 00   21.8    98.7    960    3    84          
1985-02-24 06   22.7    97.5    963    3                
1985-02-24 12   23.7    96.7    966    3    78          
1985-02-24 18   24.9    96.1    970    3    74          
1985-02-25 00   26.1    95.8    976    2    66          
1985-02-25 06   27.5    95.5    979    2    62          
1985-02-25 12   29.0    95.4    982    2    58          
1985-02-25 18   30.7    95.6    985    2    54          
1985-02-26 00   32.5    96.1    988    1    51          
1985-02-26 06   34.4    97.4    992    1    43          
1985-02-26 12   35.5    98.8    994    1    41          
1985-02-26 18   36.6   100.2    995    1    39          
1985-02-27 00   37.4   101.7    996         37          
1985-02-27 06   38.2   103.2    997         35          
1985-02-27 12   38.8   105.6    998         33          
1985-02-27 18   39.2   108.5    999         31          
1985-02-28 00   39.2   111.4   1002         25          
Winds are 10-min average.

Tropical cyclone tracks developed by Michael Bath using data from the Bureau of Meteorology and Google Maps.


[Australian Severe Weather index] [Copyright Notice] [Email Contacts] [Search This Site] [Privacy Policy]
Document: tropical_cyclone_jacob.htm Updated: 30 May 2013